Time;durP1;ratioP1;P1;durP2;ratioP2;P2;SDS_P1;SDS_P2;PMS_P1;PMS_P2;Temp;Humidity;BMP_temperature;BMP_pressure;BME280_temperature;BME280_humidity;BME280_pressure;Samples;Min_cycle;Max_cycle;Signal;HPM_P1;HPM_P2
2022/10/04 00:01:00;;;;;;;0.55;0.55;;;;;;;11.20;100.00;102499.06;10420541;28;20041;-77
2022/10/04 00:06:04;;;;;;;2.90;0.43;;;;;;;11.25;100.00;102501.88;10417249;28;20123;-77
2022/10/04 00:11:17;;;;;;;0.38;0.20;;;;;;;11.31;100.00;102507.31;10399917;28;20038;-77
2022/10/04 00:16:31;;;;;;;0.52;0.40;;;;;;;11.33;100.00;102503.13;10418293;28;20082;-77
2022/10/04 00:21:52;;;;;;;0.65;0.20;;;;;;;11.24;100.00;102492.34;10417313;28;20103;-77
2022/10/04 00:27:08;;;;;;;0.85;0.40;;;;;;;11.07;100.00;102492.41;10417249;28;20076;-77
2022/10/04 00:32:10;;;;;;;0.80;0.45;;;;;;;11.28;100.00;102494.28;10412700;28;20061;-77
2022/10/04 00:37:17;;;;;;;0.13;0.13;;;;;;;11.37;100.00;102480.94;10416949;28;20421;-77
2022/10/04 00:42:31;;;;;;;0.82;0.60;;;;;;;11.17;100.00;102477.38;10397089;28;20033;-77
2022/10/04 00:47:57;;;;;;;1.13;0.85;;;;;;;11.34;100.00;102465.28;10415060;28;20045;-77
2022/10/04 00:53:11;;;;;;;1.25;0.82;;;;;;;11.39;100.00;102449.22;10387505;28;20489;-77
2022/10/04 00:58:21;;;;;;;0.25;0.25;;;;;;;11.28;100.00;102440.09;10415777;28;20069;-77
2022/10/04 01:03:29;;;;;;;2.40;1.30;;;;;;;11.32;100.00;102442.00;10414402;28;20056;-77
2022/10/04 01:08:37;;;;;;;0.68;0.28;;;;;;;11.37;100.00;102437.94;10430213;28;20041;-78
2022/10/04 01:13:41;;;;;;;2.03;0.50;;;;;;;11.38;100.00;102426.81;10413929;28;20045;-77
2022/10/04 01:18:43;;;;;;;0.55;0.50;;;;;;;11.39;100.00;102438.91;10414144;28;20132;-77
2022/10/04 01:24:04;;;;;;;0.35;0.35;;;;;;;11.39;100.00;102428.59;10426886;28;20048;-78
2022/10/04 01:29:14;;;;;;;0.52;0.50;;;;;;;11.16;100.00;102416.28;10393163;28;20059;-77
2022/10/04 01:34:22;;;;;;;0.57;0.20;;;;;;;11.09;100.00;102412.53;10417787;28;20037;-77
2022/10/04 01:39:26;;;;;;;0.98;0.75;;;;;;;11.15;100.00;102412.84;10419044;28;20081;-77
2022/10/04 01:44:39;;;;;;;1.63;0.70;;;;;;;11.19;100.00;102413.88;10412046;28;20504;-78
2022/10/04 01:49:44;;;;;;;0.57;0.40;;;;;;;11.10;100.00;102410.03;10411259;28;20541;-77
2022/10/04 01:54:51;;;;;;;0.60;0.30;;;;;;;11.33;100.00;102417.06;10401468;28;20119;-77
2022/10/04 02:00:02;;;;;;;0.50;0.50;;;;;;;11.29;100.00;102416.06;10409232;28;20060;-77
2022/10/04 02:05:09;;;;;;;0.40;0.40;;;;;;;11.31;100.00;102419.59;10393738;28;20045;-77
2022/10/04 02:10:17;;;;;;;0.77;0.70;;;;;;;11.13;100.00;102422.19;10405039;28;20408;-77
2022/10/04 02:15:27;;;;;;;0.45;0.40;;;;;;;10.96;100.00;102416.22;10419265;28;20480;-77
2022/10/04 02:20:28;;;;;;;0.53;0.37;;;;;;;10.83;100.00;102407.00;10419592;28;20045;-78
2022/10/04 02:25:30;;;;;;;0.90;0.68;;;;;;;10.82;100.00;102391.47;10418975;28;20387;-77
2022/10/04 02:30:37;;;;;;;0.65;0.45;;;;;;;10.95;100.00;102383.50;10418279;28;20120;-77
2022/10/04 02:35:45;;;;;;;1.35;0.70;;;;;;;10.92;100.00;102379.09;10417188;28;20326;-77
2022/10/04 02:40:56;;;;;;;0.50;0.22;;;;;;;10.77;100.00;102366.31;10410849;28;20123;-77
2022/10/04 02:46:12;;;;;;;0.82;0.60;;;;;;;10.56;100.00;102363.59;10418065;28;20132;-77
2022/10/04 02:51:18;;;;;;;0.25;0.20;;;;;;;10.56;100.00;102367.84;10416149;28;20037;-77
2022/10/04 02:56:21;;;;;;;0.20;0.20;;;;;;;10.58;100.00;102355.94;10434564;28;20137;-77
2022/10/04 03:01:36;;;;;;;3.03;0.90;;;;;;;10.59;100.00;102343.13;10416127;28;20044;-77
2022/10/04 03:06:38;;;;;;;0.50;0.40;;;;;;;10.63;100.00;102350.19;10417778;28;20124;-77
2022/10/04 03:11:41;;;;;;;0.30;0.30;;;;;;;10.39;100.00;102329.25;10416591;28;20059;-77
2022/10/04 03:16:46;;;;;;;1.15;0.95;;;;;;;10.41;100.00;102343.09;10417725;28;20060;-77
2022/10/04 03:21:51;;;;;;;0.30;0.30;;;;;;;10.44;100.00;102327.81;10411266;28;20048;-77
2022/10/04 03:26:55;;;;;;;6.13;0.73;;;;;;;10.40;100.00;102330.16;10430423;28;20049;-77
2022/10/04 03:32:01;;;;;;;0.95;0.55;;;;;;;10.32;100.00;102332.28;10415769;28;20568;-77
2022/10/04 03:37:07;;;;;;;0.30;0.20;;;;;;;10.27;100.00;102328.59;10398377;28;20133;-77
2022/10/04 03:42:21;;;;;;;0.52;0.35;;;;;;;10.16;100.00;102326.38;10398668;28;20041;-77
2022/10/04 03:47:29;;;;;;;1.40;0.52;;;;;;;10.08;100.00;102317.41;10404474;28;20049;-77
2022/10/04 03:52:33;;;;;;;3.80;0.40;;;;;;;9.91;100.00;102386.03;10452933;28;20075;-77
2022/10/04 03:57:36;;;;;;;2.17;0.85;;;;;;;10.15;100.00;102390.69;10467592;28;20045;-76
2022/10/04 04:03:00;;;;;;;0.85;0.50;;;;;;;10.04;100.00;102378.97;10413160;28;20064;-77
2022/10/04 04:08:18;;;;;;;0.55;0.55;;;;;;;10.12;100.00;102391.41;10400081;28;20084;-77
2022/10/04 04:13:35;;;;;;;0.90;0.50;;;;;;;10.10;100.00;102387.88;10413949;28;20052;-77
2022/10/04 04:18:42;;;;;;;1.95;0.52;;;;;;;9.99;100.00;102363.25;10413951;28;20405;-77
2022/10/04 04:23:49;;;;;;;0.40;0.22;;;;;;;9.82;100.00;102364.97;10413951;28;20058;-77
2022/10/04 04:29:02;;;;;;;1.70;0.50;;;;;;;9.85;100.00;102359.97;10395941;28;20037;-77
2022/10/04 04:34:21;;;;;;;0.50;0.47;;;;;;;9.88;100.00;102370.44;10396119;28;20403;-77
2022/10/04 04:39:44;;;;;;;0.68;0.68;;;;;;;9.90;100.00;102362.78;10413017;28;20076;-77
2022/10/04 04:44:50;;;;;;;0.52;0.43;;;;;;;9.70;100.00;102362.63;10413478;28;20095;-77
2022/10/04 04:49:55;;;;;;;0.82;0.57;;;;;;;9.68;100.00;102364.22;10412828;28;20399;-77
2022/10/04 04:54:56;;;;;;;1.15;0.77;;;;;;;9.75;100.00;102348.31;10420880;28;20404;-77
2022/10/04 05:00:00;;;;;;;0.50;0.50;;;;;;;9.73;100.00;102343.88;10412582;28;20431;-77
2022/10/04 05:05:19;;;;;;;1.27;0.77;;;;;;;9.80;100.00;102351.13;10412738;28;20045;-77
2022/10/04 05:10:31;;;;;;;2.25;1.63;;;;;;;9.66;100.00;102333.28;10419081;28;20041;-77
2022/10/04 05:15:35;;;;;;;0.82;0.50;;;;;;;9.55;100.00;102325.78;10394482;28;20088;-77
2022/10/04 05:20:37;;;;;;;2.20;0.85;;;;;;;9.50;100.00;102321.28;10394521;28;20042;-77
2022/10/04 05:25:39;;;;;;;0.35;0.35;;;;;;;9.52;100.00;102327.38;10412295;28;20045;-77
2022/10/04 05:30:48;;;;;;;1.40;0.77;;;;;;;9.54;100.00;102340.31;10394286;28;20045;-77
2022/10/04 05:36:19;;;;;;;0.40;0.30;;;;;;;9.49;100.00;102360.66;10411909;28;20121;-77
2022/10/04 05:41:28;;;;;;;0.68;0.50;;;;;;;9.58;100.00;102351.66;10394106;28;20091;-77
2022/10/04 05:46:34;;;;;;;0.20;0.20;;;;;;;9.38;100.00;102361.78;10411581;28;20402;-77
2022/10/04 05:51:49;;;;;;;0.43;0.28;;;;;;;9.42;100.00;102357.69;10393400;28;20475;-77
2022/10/04 05:57:21;;;;;;;0.98;0.57;;;;;;;9.44;100.00;102356.97;10411752;28;20572;-77
2022/10/04 06:02:46;;;;;;;0.40;0.40;;;;;;;9.34;100.00;102359.88;10411213;28;20132;-76
2022/10/04 06:07:58;;;;;;;0.95;0.55;;;;;;;9.36;100.00;102363.38;10411552;28;20486;-76
2022/10/04 06:13:14;;;;;;;1.20;0.80;;;;;;;9.45;100.00;102369.03;10410760;28;20132;-76
2022/10/04 06:19:12;;;;;;;1.55;0.55;;;;;;;9.44;100.00;102377.53;10402071;28;20044;-76
2022/10/04 06:24:19;;;;;;;1.58;0.65;;;;;;;9.60;100.00;102378.38;10371035;28;20467;-77
2022/10/04 06:29:37;;;;;;;1.00;0.82;;;;;;;9.59;100.00;102390.38;10401369;28;20497;-77
2022/10/04 06:35:14;;;;;;;1.10;0.88;;;;;;;9.73;100.00;102380.78;10400997;28;20669;-76
2022/10/04 06:41:03;;;;;;;1.35;0.80;;;;;;;9.63;100.00;102383.69;10403074;28;20048;-76
2022/10/04 06:46:14;;;;;;;1.33;1.23;;;;;;;9.71;100.00;102371.22;10398260;28;20120;-76
2022/10/04 06:51:40;;;;;;;1.08;0.70;;;;;;;9.69;100.00;102395.19;10420340;28;20044;-76
2022/10/04 06:56:48;;;;;;;1.60;1.00;;;;;;;9.67;100.00;102390.75;10425380;28;20071;-76
2022/10/04 07:02:04;;;;;;;3.38;0.70;;;;;;;9.74;100.00;102392.84;10407745;28;20045;-77
2022/10/04 07:08:05;;;;;;;0.82;0.65;;;;;;;9.81;100.00;102384.66;10440392;28;20061;-75
2022/10/04 07:13:02;;;;;;;14.45;1.30;;;;;;;9.95;100.00;102387.06;10420811;28;20054;-76
2022/10/04 07:18:12;;;;;;;1.40;0.50;;;;;;;9.97;100.00;102377.75;10415973;28;20456;-77
2022/10/04 07:23:21;;;;;;;;;;;;;;;10.07;100.00;102369.69;10405553;28;20048;-76
2022/10/04 07:34:14;;;;;;;0.28;0.28;;;;;;;11.05;100.00;102322.91;10409627;28;20033;-77
2022/10/04 07:39:39;;;;;;;0.52;0.50;;;;;;;11.21;100.00;102298.72;10408472;28;20038;-76
2022/10/04 07:44:45;;;;;;;2.72;1.10;;;;;;;11.56;100.00;102260.72;10410023;28;20040;-76
2022/10/04 07:49:52;;;;;;;0.05;0.03;;;;;;;11.63;100.00;102239.50;10409170;28;20107;-77
2022/10/04 07:55:20;;;;;;;1.77;1.27;;;;;;;12.34;100.00;102180.44;10408546;28;20054;-76
2022/10/04 08:00:29;;;;;;;0.70;0.45;;;;;;;13.16;100.00;102161.91;10405228;28;20094;-77
2022/10/04 08:05:40;;;;;;;0.50;0.50;;;;;;;13.96;100.00;102149.06;10407153;28;20037;-77
2022/10/04 08:11:16;;;;;;;0.85;0.68;;;;;;;13.47;100.00;102135.41;10399602;28;20068;-76
2022/10/04 08:16:42;;;;;;;0.20;0.20;;;;;;;13.15;100.00;102145.50;10419433;28;20041;-76
2022/10/04 08:21:56;;;;;;;0.60;0.30;;;;;;;12.30;100.00;102159.59;10407457;28;20054;-76
2022/10/04 08:27:31;;;;;;;1.35;0.65;;;;;;;12.72;100.00;102159.47;10406562;28;20069;-76
2022/10/04 08:32:53;;;;;;;0.17;0.17;;;;;;;13.46;100.00;102156.06;10406199;28;20141;-77
2022/10/04 08:38:27;;;;;;;1.77;0.60;;;;;;;13.87;100.00;102116.81;10403901;28;20099;-77
2022/10/04 08:44:10;;;;;;;0.75;0.68;;;;;;;13.81;100.00;102114.94;10389096;28;20470;-77
2022/10/04 08:49:34;;;;;;;0.40;0.40;;;;;;;14.00;100.00;102123.28;10407763;28;20049;-77
2022/10/04 08:55:00;;;;;;;0.65;0.52;;;;;;;14.83;100.00;102128.34;10412013;28;20081;-77
2022/10/04 09:00:47;;;;;;;0.43;0.20;;;;;;;14.79;100.00;102123.91;10411126;28;20037;-77
2022/10/04 09:06:07;;;;;;;0.65;0.65;;;;;;;15.14;100.00;102111.03;10427075;28;20041;-76
2022/10/04 09:11:20;;;;;;;0.20;0.20;;;;;;;15.79;100.00;102102.22;10414619;28;20042;-78
2022/10/04 09:16:49;;;;;;;0.30;0.10;;;;;;;15.46;100.00;102097.97;10395170;28;20495;-76
2022/10/04 09:21:57;;;;;;;0.43;0.40;;;;;;;15.26;100.00;102099.19;10425429;28;20038;-76
2022/10/04 09:27:22;;;;;;;45.72;2.08;;;;;;;15.09;100.00;102094.44;10410823;28;20038;-77
2022/10/04 09:33:03;;;;;;;0.45;0.43;;;;;;;15.52;100.00;102087.75;10423290;28;20073;-76
2022/10/04 09:38:42;;;;;;;0.55;0.55;;;;;;;16.09;100.00;102085.63;10411234;28;20051;-77
2022/10/04 09:44:02;;;;;;;0.43;0.35;;;;;;;16.32;100.00;102074.81;10410206;28;20042;-77
2022/10/04 09:49:06;;;;;;;6.25;0.75;;;;;;;16.53;100.00;102071.75;10414421;28;20073;-76
2022/10/04 09:54:37;;;;;;;1.02;0.73;;;;;;;16.35;100.00;102077.47;10421138;28;20043;-76
2022/10/04 09:59:52;;;;;;;0.45;0.43;;;;;;;17.01;100.00;102064.91;10399955;28;20084;-77
2022/10/04 10:18:03;;;;;;;1.55;0.80;;;;;;;17.04;100.00;102059.75;10425483;28;20116;-76
2022/10/04 10:23:46;;;;;;;0.15;0.13;;;;;;;17.77;100.00;102043.53;10435722;28;20120;-77
2022/10/04 10:29:22;;;;;;;0.50;0.50;;;;;;;17.00;100.00;102037.13;10450271;28;20069;-76
2022/10/04 10:34:58;;;;;;;0.65;0.28;;;;;;;17.34;100.00;102042.88;10451480;28;20489;-76
2022/10/04 10:40:28;;;;;;;8.38;1.20;;;;;;;18.09;100.00;102042.25;10448661;28;20045;-78
2022/10/04 10:52:33;;;;;;;1.00;0.73;;;;;;;18.05;100.00;102023.09;10430536;28;20025;-77
2022/10/04 10:57:58;;;;;;;1.45;0.55;;;;;;;17.30;100.00;102009.84;10439118;28;20072;-77
2022/10/04 11:03:12;;;;;;;1.98;0.82;;;;;;;18.42;100.00;102021.78;10426632;28;20046;-79
2022/10/04 11:08:49;;;;;;;1.75;0.65;;;;;;;17.99;100.00;102017.78;10411969;28;20053;-77
2022/10/04 11:14:45;;;;;;;0.05;0.05;;;;;;;18.31;100.00;102030.34;10437898;28;20552;-78
2022/10/04 11:20:10;;;;;;;0.15;0.10;;;;;;;18.24;100.00;102028.53;10334919;28;20093;-78
2022/10/04 11:26:05;;;;;;;0.57;0.52;;;;;;;18.45;100.00;102019.19;10340725;28;20061;-78
2022/10/04 11:31:31;;;;;;;0.60;0.50;;;;;;;17.95;100.00;102005.56;10255059;29;20090;-75
2022/10/04 11:36:35;;;;;;;0.73;0.45;;;;;;;17.68;100.00;101995.59;10301246;28;20057;-77
2022/10/04 11:41:47;;;;;;;0.30;0.30;;;;;;;17.95;100.00;101992.53;10434618;28;20064;-76
2022/10/04 11:47:08;;;;;;;1.95;0.95;;;;;;;18.00;100.00;101972.59;10416128;28;20076;-77
2022/10/04 11:52:38;;;;;;;7.40;0.68;;;;;;;18.61;100.00;101971.53;10420085;28;20173;-77
2022/10/04 11:57:51;;;;;;;1.65;1.55;;;;;;;18.06;100.00;101959.63;10418387;28;20519;-76
2022/10/04 12:03:16;;;;;;;0.35;0.32;;;;;;;17.72;100.00;101963.53;10418659;28;20116;-77
2022/10/04 12:08:25;;;;;;;20.48;1.25;;;;;;;17.76;100.00;101953.16;10421628;28;20092;-78
2022/10/04 12:13:51;;;;;;;0.73;0.33;;;;;;;18.29;100.00;101938.13;10459264;28;20136;-77
2022/10/04 12:25:55;;;;;;;0.90;0.30;;;;;;;18.10;100.00;101937.06;10380143;28;20030;-76
2022/10/04 12:31:31;;;;;;;1.70;1.17;;;;;;;17.90;100.00;101937.69;10379939;28;20523;-77
2022/10/04 12:37:03;;;;;;;1.08;0.45;;;;;;;18.21;100.00;101929.34;10401058;28;20471;-77
2022/10/04 12:42:25;;;;;;;0.65;0.35;;;;;;;18.14;100.00;101912.78;10367134;28;20053;-77
2022/10/04 12:47:43;;;;;;;0.22;0.22;;;;;;;18.36;100.00;101908.66;10415559;28;20523;-77
2022/10/04 12:52:50;;;;;;;1.60;0.73;;;;;;;18.18;100.00;101898.91;10440379;28;20076;-76
2022/10/04 12:58:03;;;;;;;0.68;0.68;;;;;;;17.85;100.00;101894.16;10456343;28;20088;-77
2022/10/04 13:03:33;;;;;;;0.43;0.35;;;;;;;18.36;100.00;101882.56;10362152;28;20409;-76
2022/10/04 13:08:56;;;;;;;0.10;0.10;;;;;;;18.36;100.00;101879.94;10376134;28;20117;-77
2022/10/04 13:14:22;;;;;;;1.27;0.55;;;;;;;18.07;100.00;101880.53;10408837;28;20046;-77
2022/10/04 13:19:54;;;;;;;0.10;0.10;;;;;;;18.15;100.00;101877.13;10415889;28;20560;-76
2022/10/04 13:25:14;;;;;;;0.68;0.50;;;;;;;18.14;100.00;101865.84;10442078;28;20506;-77
2022/10/04 13:30:26;;;;;;;0.90;0.40;;;;;;;17.27;100.00;101870.03;10457480;28;20373;-77
2022/10/04 13:35:45;;;;;;;0.45;0.45;;;;;;;17.41;100.00;101871.94;10375248;28;20329;-76
2022/10/04 13:47:55;;;;;;;0.93;0.30;;;;;;;18.52;100.00;101856.59;10447876;28;20061;-76
2022/10/04 14:00:32;;;;;;;0.60;0.32;;;;;;;18.51;100.00;101852.25;10415036;28;20050;-77
2022/10/04 14:05:54;;;;;;;0.10;0.10;;;;;;;18.22;100.00;101853.75;10436224;28;20042;-77
2022/10/04 14:11:15;;;;;;;0.45;0.45;;;;;;;18.22;100.00;101826.78;10406795;28;20128;-77
2022/10/04 14:16:53;;;;;;;0.17;0.17;;;;;;;18.02;100.00;101824.88;10423822;28;20116;-77
2022/10/04 14:22:04;;;;;;;0.43;0.38;;;;;;;18.04;100.00;101807.53;10423531;28;20539;-77
2022/10/04 14:27:43;;;;;;;0.57;0.57;;;;;;;18.23;100.00;101798.13;10423746;28;20120;-76
2022/10/04 14:32:54;;;;;;;1.50;0.55;;;;;;;18.32;100.00;101797.31;10408938;28;20462;-77
2022/10/04 14:38:34;;;;;;;0.20;0.20;;;;;;;18.21;100.00;101798.94;10399768;28;20065;-77
2022/10/04 14:43:47;;;;;;;0.75;0.35;;;;;;;18.24;100.00;101784.19;10381924;28;20442;-77
2022/10/04 14:56:25;;;;;;;0.45;0.10;;;;;;;17.94;100.00;101769.16;10403899;28;20041;-77
2022/10/04 15:01:27;;;;;;;0.65;0.40;;;;;;;17.58;100.00;101791.38;10420550;28;20493;-77
2022/10/04 15:06:47;;;;;;;0.75;0.57;;;;;;;17.42;100.00;101788.59;10421573;28;20052;-78
2022/10/04 15:11:57;;;;;;;0.35;0.20;;;;;;;17.28;100.00;101800.59;10421363;28;20053;-77
2022/10/04 15:17:37;;;;;;;0.37;0.30;;;;;;;17.23;100.00;101808.34;10390536;28;20468;-77
2022/10/04 15:29:57;;;;;;;0.38;0.15;;;;;;;17.09;100.00;101813.34;10419886;28;20055;-76
2022/10/04 15:35:10;;;;;;;0.47;0.30;;;;;;;17.11;100.00;101822.06;10419272;28;20046;-77
2022/10/04 15:40:33;;;;;;;0.47;0.30;;;;;;;16.89;100.00;101812.16;10419185;28;20103;-76
2022/10/04 15:46:00;;;;;;;1.58;1.35;;;;;;;16.99;100.00;101816.69;10417894;28;20512;-76
2022/10/04 15:51:16;;;;;;;3.47;1.80;;;;;;;17.15;100.00;101796.06;10418032;28;20038;-75
2022/10/04 15:56:41;;;;;;;1.08;0.65;;;;;;;16.83;100.00;101799.06;10431486;28;20476;-76
2022/10/04 16:01:53;;;;;;;0.52;0.40;;;;;;;16.86;100.00;101799.13;10446723;28;20047;-75
2022/10/04 16:07:29;;;;;;;1.17;0.43;;;;;;;16.79;100.00;101804.22;10399233;28;20435;-76
2022/10/04 16:13:13;;;;;;;3.75;0.55;;;;;;;16.70;100.00;101806.72;10405145;28;20056;-76
2022/10/04 16:18:45;;;;;;;0.60;0.50;;;;;;;16.68;100.00;101798.00;10440222;28;20384;-76
2022/10/04 16:24:08;;;;;;;0.22;0.22;;;;;;;16.46;100.00;101807.19;10418897;28;20033;-75
2022/10/04 16:29:17;;;;;;;0.40;0.10;;;;;;;16.50;100.00;101802.06;10416815;28;20124;-76
2022/10/04 16:34:33;;;;;;;1.20;0.47;;;;;;;16.39;100.00;101793.22;10417367;28;20128;-76
2022/10/04 16:40:04;;;;;;;0.00;0.00;;;;;;;16.29;100.00;101791.31;10416009;28;20484;-76
2022/10/04 16:45:06;;;;;;;0.98;0.75;;;;;;;16.07;100.00;101806.56;10426977;28;20408;-77
2022/10/04 16:50:53;;;;;;;2.35;1.15;;;;;;;16.06;100.00;101820.41;10624096;27;20419;-75
2022/10/04 16:55:56;;;;;;;0.35;0.35;;;;;;;15.70;100.00;101822.31;10591915;28;20104;-76
2022/10/04 17:01:22;;;;;;;0.20;0.20;;;;;;;15.58;100.00;101834.19;10615707;28;20055;-76
2022/10/04 17:06:32;;;;;;;0.65;0.30;;;;;;;15.48;100.00;101841.78;10599575;28;20486;-76
2022/10/04 17:11:41;;;;;;;0.40;0.37;;;;;;;15.65;100.00;101843.84;10618299;28;20088;-76
2022/10/04 17:16:59;;;;;;;;;;;;;;;15.11;100.00;101843.59;10599958;28;20332;-76
2022/10/04 17:22:19;;;;;;;0.28;0.28;;;;;;;14.99;100.00;101840.75;10599636;28;20098;-76
2022/10/04 17:27:26;;;;;;;0.55;0.45;;;;;;;14.96;100.00;101848.44;10599746;28;20550;-76
2022/10/04 17:32:49;;;;;;;3.85;0.73;;;;;;;14.80;100.00;101858.47;10582048;28;20384;-75
2022/10/04 17:38:08;;;;;;;0.65;0.65;;;;;;;14.69;100.00;101858.19;10598442;28;20043;-76
2022/10/04 17:43:32;;;;;;;0.30;0.20;;;;;;;14.55;100.00;101865.63;10598570;28;20071;-76
2022/10/04 18:00:30;;;;;;;0.45;0.30;;;;;;;14.58;100.00;101857.91;10580483;28;20577;-76
2022/10/04 18:05:45;;;;;;;0.30;0.25;;;;;;;14.54;100.00;101843.13;10587488;28;20043;-75
2022/10/04 18:10:51;;;;;;;0.45;0.20;;;;;;;14.32;100.00;101849.47;10551586;28;20130;-75
2022/10/04 18:16:17;;;;;;;3.17;0.77;;;;;;;14.21;100.00;101863.88;10586890;28;20130;-76
2022/10/04 18:21:28;;;;;;;0.47;0.35;;;;;;;14.22;100.00;101868.22;10568303;28;20100;-76
2022/10/04 18:33:48;;;;;;;0.68;0.47;;;;;;;14.32;100.00;101866.75;10569712;28;20031;-76
2022/10/04 18:39:10;;;;;;;0.85;0.52;;;;;;;14.35;100.00;101846.06;10565752;28;20139;-75
2022/10/04 18:44:14;;;;;;;0.47;0.35;;;;;;;14.20;100.00;101839.66;10565909;28;20124;-75
2022/10/04 18:49:25;;;;;;;0.35;0.22;;;;;;;14.11;100.00;101831.69;10550512;28;20075;-76
2022/10/04 18:54:36;;;;;;;1.52;0.95;;;;;;;14.20;100.00;101820.66;10585320;28;20043;-75
2022/10/04 19:05:25;;;;;;;0.88;0.63;;;;;;;14.01;100.00;101850.38;10571892;28;20044;-76
2022/10/04 19:10:30;;;;;;;1.05;0.60;;;;;;;13.80;100.00;101861.94;10546775;28;20118;-76
2022/10/04 19:16:24;;;;;;;0.63;0.40;;;;;;;13.89;100.00;101862.16;10562213;28;20205;-76
2022/10/04 19:21:38;;;;;;;1.13;0.70;;;;;;;13.64;100.00;101858.91;10536721;28;20093;-76
2022/10/04 19:26:43;;;;;;;1.27;0.90;;;;;;;13.67;100.00;101849.44;10577346;28;20074;-75
2022/10/04 19:31:58;;;;;;;1.02;0.30;;;;;;;13.72;100.00;101853.91;10564569;28;20406;-75
2022/10/04 19:37:25;;;;;;;1.90;1.00;;;;;;;13.70;100.00;101849.53;10583826;28;20036;-76
2022/10/04 19:42:51;;;;;;;0.82;0.70;;;;;;;13.49;100.00;101853.28;10564983;28;20106;-76
2022/10/04 19:47:58;;;;;;;0.40;0.35;;;;;;;13.37;100.00;101847.69;10568962;28;20078;-76
2022/10/04 19:53:18;;;;;;;1.55;1.45;;;;;;;13.33;100.00;101850.22;10564569;28;20570;-75
2022/10/04 19:58:38;;;;;;;0.93;0.50;;;;;;;13.37;100.00;101839.91;10582523;28;20082;-75
2022/10/04 20:03:40;;;;;;;0.75;0.65;;;;;;;13.29;100.00;101831.94;10574590;28;20051;-76
2022/10/04 20:08:57;;;;;;;1.00;0.68;;;;;;;13.34;100.00;101820.00;10564030;28;20154;-75
2022/10/04 20:14:20;;;;;;;0.68;0.35;;;;;;;13.53;100.00;101800.75;10582181;28;20050;-75
2022/10/04 20:19:27;;;;;;;3.97;0.70;;;;;;;13.50;100.00;101816.22;10565085;28;20035;-77
2022/10/04 20:24:34;;;;;;;1.85;1.33;;;;;;;13.58;100.00;101813.81;10580728;28;20090;-77
2022/10/04 20:29:36;;;;;;;0.40;0.20;;;;;;;13.72;100.00;101816.81;10563566;28;20039;-77
2022/10/04 20:34:50;;;;;;;0.70;0.70;;;;;;;13.78;100.00;101827.31;10580579;28;20047;-77
2022/10/04 20:39:51;;;;;;;0.93;0.73;;;;;;;13.92;100.00;101830.31;10562119;28;20043;-77
2022/10/04 20:45:00;;;;;;;3.58;0.95;;;;;;;14.00;100.00;101833.09;10572882;28;20047;-77
2022/10/04 20:50:05;;;;;;;1.88;0.85;;;;;;;14.07;100.00;101816.88;10536535;28;20136;-77
2022/10/04 20:55:26;;;;;;;3.22;0.85;;;;;;;14.10;100.00;101810.06;10569115;28;20118;-77
2022/10/04 21:00:55;;;;;;;1.65;0.80;;;;;;;14.15;100.00;101812.75;10558054;28;20479;-77
2022/10/04 21:06:01;;;;;;;2.28;0.90;;;;;;;14.24;100.00;101809.50;10580735;28;20043;-78
2022/10/04 21:11:14;;;;;;;0.73;0.63;;;;;;;14.35;100.00;101814.97;10562230;28;20064;-77
2022/10/04 21:16:32;;;;;;;0.40;0.30;;;;;;;14.19;100.00;101824.94;10562374;28;20048;-77
2022/10/04 21:21:50;;;;;;;0.50;0.40;;;;;;;14.25;100.00;101809.59;10588784;28;20074;-76
2022/10/04 21:26:55;;;;;;;3.42;1.65;;;;;;;14.40;100.00;101813.38;10585886;28;20131;-77
2022/10/04 21:31:58;;;;;;;0.30;0.20;;;;;;;14.44;100.00;101816.06;10572380;28;20083;-77
2022/10/04 21:37:01;;;;;;;1.67;0.60;;;;;;;14.41;100.00;101820.31;10569429;28;20490;-76
2022/10/04 21:42:03;;;;;;;0.82;0.65;;;;;;;14.35;100.00;101818.47;10569086;28;20146;-76
2022/10/04 21:47:05;;;;;;;0.75;0.43;;;;;;;14.47;100.00;101807.50;10586950;28;20397;-77
2022/10/04 21:52:07;;;;;;;1.23;0.93;;;;;;;14.45;100.00;101814.38;10551802;28;20082;-77
2022/10/04 21:57:09;;;;;;;0.20;0.17;;;;;;;14.64;100.00;101822.56;10586634;28;20446;-77
2022/10/04 22:02:12;;;;;;;2.45;0.63;;;;;;;14.62;100.00;101819.09;10568904;28;20075;-76
2022/10/04 22:07:47;;;;;;;0.80;0.73;;;;;;;14.91;100.00;101820.69;10563114;28;20047;-76
2022/10/04 22:12:48;;;;;;;0.80;0.40;;;;;;;14.89;100.00;101814.56;10548274;28;20079;-76
2022/10/04 22:17:50;;;;;;;1.48;1.05;;;;;;;14.91;100.00;101805.13;10553055;28;20131;-78
2022/10/04 22:22:54;;;;;;;1.90;0.75;;;;;;;14.79;100.00;101806.53;10539854;28;20050;-76
2022/10/04 22:27:56;;;;;;;1.73;0.52;;;;;;;14.92;100.00;101808.56;10567724;28;20501;-76
2022/10/04 22:33:00;;;;;;;0.60;0.50;;;;;;;14.78;100.00;101805.66;10569668;28;20053;-76
2022/10/04 22:38:04;;;;;;;4.47;0.30;;;;;;;14.88;100.00;101802.44;10567839;28;20097;-77
2022/10/04 22:43:58;;;;;;;1.35;0.80;;;;;;;14.80;100.00;101798.78;10566934;28;20498;-76
2022/10/04 22:48:59;;;;;;;0.40;0.40;;;;;;;14.84;100.00;101795.44;10563799;28;20483;-76
2022/10/04 22:54:15;;;;;;;0.88;0.65;;;;;;;14.82;100.00;101791.06;10559397;28;20036;-76
2022/10/04 22:59:18;;;;;;;0.30;0.30;;;;;;;14.89;100.00;101788.63;10583164;28;20060;-76
2022/10/04 23:04:24;;;;;;;5.30;0.50;;;;;;;14.82;100.00;101784.16;10584694;28;20093;-76
2022/10/04 23:09:26;;;;;;;0.55;0.50;;;;;;;14.81;100.00;101779.78;10566207;28;20058;-76
2022/10/04 23:14:27;;;;;;;0.50;0.43;;;;;;;14.75;100.00;101779.66;10576924;28;20051;-76
2022/10/04 23:19:32;;;;;;;0.38;0.32;;;;;;;14.71;100.00;101770.03;10565835;28;20047;-76
2022/10/04 23:24:33;;;;;;;0.60;0.32;;;;;;;14.71;100.00;101767.44;10549577;28;20071;-76
2022/10/04 23:29:37;;;;;;;0.65;0.35;;;;;;;14.68;100.00;101773.44;10565995;28;20127;-76
2022/10/04 23:34:42;;;;;;;6.28;0.70;;;;;;;14.75;100.00;101762.38;10565349;28;20044;-76
2022/10/04 23:39:47;;;;;;;0.45;0.40;;;;;;;14.88;100.00;101760.94;10542702;28;20047;-76
2022/10/04 23:44:50;;;;;;;1.58;1.48;;;;;;;14.93;100.00;101742.00;10558169;28;20411;-76
2022/10/04 23:49:52;;;;;;;0.85;0.57;;;;;;;15.07;100.00;101746.63;10575994;28;20122;-76
2022/10/04 23:54:54;;;;;;;0.98;0.85;;;;;;;14.64;100.00;101761.22;10558038;28;20077;-76
2022/10/04 23:59:59;;;;;;;2.28;1.25;;;;;;;14.90;100.00;101759.25;10562109;28;20081;-76
